Shenandoah, IA (51601)

9:55 PM CDT on April 25, 2015 (GMT -0500)
Cottage and Maple | | Change Station
CLOSE
Current Station
Personal Weather Station
Location: Shenandoah, IA
Elevation: 1016 ft
Nearby Weather Stations

Elev 1016 ft 40.76 °N, 95.37 °W | Updated 23 seconds ago

Overcast
Overcast
49.4 °F
Feels Like 48 °F
N
5.0
Wind Variable Wind from NE
Gusts 9.0 mph

Today
High -- | Low -- °F
--% Chance of Precip.
Yesterday
High -- | Low -- °F
Precip. -- in
6:28 AM 8:11 PM
Waxing Crescent, 51% visible
Pressure 29.83 in
Visibility 10.0 miles
Clouds Overcast 1700 ft
Windchill 48 °F
Dew Point 45 °F
Humidity 85%
Rainfall 0.18 in
Snow Depth Not available.
UV 0 out of 12
Pollen 4.00 out of 12
Air Quality Not available.
Flu Activity Local Activity
METAR KSDA 260235Z AUTO 06014KT 10SM OVC017 10/08 A2983 RMK AO2

More Conditions Fewer Conditions

Pressure 29.83 in
Visibility 10.0 miles
Clouds Overcast 1700 ft
Windchill 48 °F
Dew Point 45 °F
Humidity 85%
Rainfall 0.18 in
Snow Depth Not available.
UV 0 out of 12
Pollen 4.00 out of 12
Air Quality Not available.
Flu Activity Local Activity
METAR KSDA 260235Z AUTO 06014KT 10SM OVC017 10/08 A2983 RMK AO2

More Conditions Fewer Conditions

10-Day Weather Forecast

Almanac

Astronomy

Apr. 25, 2015 Rise Set
Actual Time
Civil Twilight
Nautical Twilight
Astronomical Twilight
Moon
Length of Visible Light
Length of Day
Tomorrow will be .
, % of the Moon is Illuminated

Today's Extremes

State Highs State Lows

Community

WunderPhotos

Upload Photos

1,816,909 photos uploaded!

WunderBlogs® & News

Nearby

Air Quality

  Air Quality AQ Index Pollutant
Not available.

Snow Depth

Station Depth Elevation

Earthquake Activity

City Distance Mag. Time & Date
Minimum magnitude displayed is 2.5.

Coastal Water Temperatures

Place Temperature

Stations

Nearby Weather Stations

Station Location Temp. Windchill Dew Point Humidity Wind Precip. Elev Updated Type